createdAt,value
2022-08-04T00:01:03.095Z,1014.08
2022-08-04T00:02:01.008Z,1014.02
2022-08-04T00:03:00.839Z,1014
2022-08-04T00:04:00.521Z,1014.03
2022-08-04T00:05:00.225Z,1014.04
2022-08-04T00:06:05.279Z,1014.06
2022-08-04T00:07:00.766Z,1014.09
2022-08-04T00:08:00.437Z,1014.12
2022-08-04T00:09:00.149Z,1014.1
2022-08-04T00:09:59.951Z,1014.1
2022-08-04T00:11:05.467Z,1014.1
2022-08-04T00:12:02.839Z,1014.15
2022-08-04T00:13:01.184Z,1014.14
2022-08-04T00:14:03.557Z,1014.13
2022-08-04T00:15:01.435Z,1014.09
2022-08-04T00:16:05.912Z,1014.12
2022-08-04T00:17:00.956Z,1014.1
2022-08-04T00:18:00.612Z,1014.13
2022-08-04T00:19:00.267Z,1014.1
2022-08-04T00:19:59.921Z,1014.11
2022-08-04T00:21:09.085Z,1014.12
2022-08-04T00:22:00.940Z,1014.15
2022-08-04T00:23:00.631Z,1014.12
2022-08-04T00:24:11.508Z,1014.1
2022-08-04T00:25:02.872Z,1014.16
2022-08-04T00:26:09.202Z,1014.12
2022-08-04T00:27:01.383Z,1014.09
2022-08-04T00:28:00.858Z,1014.17
2022-08-04T00:29:00.562Z,1014.16
2022-08-04T00:30:00.238Z,1014.15
2022-08-04T00:31:12.358Z,1014.14
2022-08-04T00:32:00.773Z,1014.1
2022-08-04T00:33:00.507Z,1014.15
2022-08-04T00:34:00.324Z,1014.15
2022-08-04T00:34:59.964Z,1014.12
2022-08-04T00:35:59.702Z,1014.16
2022-08-04T00:37:01.548Z,1014.1
2022-08-04T00:38:00.969Z,1014.12
2022-08-04T00:39:00.833Z,1014.15
2022-08-04T00:40:00.549Z,1014.14
2022-08-04T00:41:00.267Z,1014.12
2022-08-04T00:41:59.959Z,1014.18
2022-08-04T00:42:59.750Z,1014.14
2022-08-04T00:44:02.931Z,1014.14
2022-08-04T00:45:02.343Z,1014.16
2022-08-04T00:46:14.981Z,1014.13
2022-08-04T00:47:03.057Z,1014.14
2022-08-04T00:48:01.319Z,1014.16
2022-08-04T00:49:00.728Z,1014.18
2022-08-04T00:50:00.432Z,1014.16
2022-08-04T00:51:00.103Z,1014.15
2022-08-04T00:52:31.896Z,1014.16
2022-08-04T00:53:00.773Z,1014.14
2022-08-04T00:54:00.770Z,1014.13
2022-08-04T00:55:02.414Z,1014.14
2022-08-04T00:56:02.685Z,1014.16
2022-08-04T00:57:01.302Z,1014.19
2022-08-04T00:58:01.079Z,1014.18
2022-08-04T00:59:00.768Z,1014.19
2022-08-04T01:00:00.777Z,1014.2
2022-08-04T01:01:00.593Z,1014.19
2022-08-04T01:02:00.397Z,1014.21
2022-08-04T01:03:00.702Z,1014.19
2022-08-04T01:04:00.418Z,1014.2
2022-08-04T01:05:00.123Z,1014.2
2022-08-04T01:05:59.801Z,1014.21
2022-08-04T01:07:01.914Z,1014.18
2022-08-04T01:08:02.991Z,1014.23
2022-08-04T01:09:00.639Z,1014.22
2022-08-04T01:10:01.004Z,1014.2
2022-08-04T01:11:00.681Z,1014.23
2022-08-04T01:12:00.477Z,1014.21
2022-08-04T01:13:00.293Z,1014.2
2022-08-04T01:14:00.246Z,1014.24
2022-08-04T01:15:00.207Z,1014.26
2022-08-04T01:16:01.027Z,1014.24
2022-08-04T01:17:00.979Z,1014.3
2022-08-04T01:18:00.778Z,1014.25
2022-08-04T01:19:00.555Z,1014.28
2022-08-04T01:20:00.329Z,1014.26
2022-08-04T01:21:00.113Z,1014.28
2022-08-04T01:21:59.803Z,1014.28
2022-08-04T01:23:01.929Z,1014.27
2022-08-04T01:24:02.854Z,1014.28
2022-08-04T01:25:02.370Z,1014.26
2022-08-04T01:26:00.969Z,1014.25
2022-08-04T01:27:00.854Z,1014.26
2022-08-04T01:28:00.904Z,1014.31
2022-08-04T01:29:00.911Z,1014.25
2022-08-04T01:30:00.559Z,1014.27
2022-08-04T01:31:00.281Z,1014.24
2022-08-04T01:32:00.083Z,1014.24
2022-08-04T01:33:00.089Z,1014.25
2022-08-04T01:34:04.252Z,1014.23
2022-08-04T01:35:00.936Z,1014.28
2022-08-04T01:36:00.657Z,1014.26
2022-08-04T01:37:00.363Z,1014.29
2022-08-04T01:38:00.107Z,1014.28
2022-08-04T01:38:59.850Z,1014.3
2022-08-04T01:39:59.767Z,1014.27
2022-08-04T01:41:02.404Z,1014.29
2022-08-04T01:42:00.783Z,1014.29
2022-08-04T01:43:01.169Z,1014.27
2022-08-04T01:44:01.804Z,1014.31
2022-08-04T01:45:00.849Z,1014.3
2022-08-04T01:46:00.505Z,1014.33
2022-08-04T01:47:00.177Z,1014.31
2022-08-04T01:47:59.837Z,1014.3
2022-08-04T01:49:01.496Z,1014.3
2022-08-04T01:50:00.918Z,1014.31
2022-08-04T01:51:00.910Z,1014.29
2022-08-04T01:52:00.584Z,1014.28
2022-08-04T01:53:00.576Z,1014.27
2022-08-04T01:54:00.324Z,1014.24
2022-08-04T01:55:01.298Z,1014.26
2022-08-04T01:56:00.964Z,1014.27
2022-08-04T01:57:38.781Z,1014.25
2022-08-04T01:58:01.078Z,1014.3
2022-08-04T01:59:00.777Z,1014.25
2022-08-04T02:00:00.453Z,1014.27
2022-08-04T02:01:00.273Z,1014.28
2022-08-04T02:02:08.521Z,1014.3
2022-08-04T02:03:01.249Z,1014.29
2022-08-04T02:04:18.548Z,1014.29
2022-08-04T02:05:01.214Z,1014.28
2022-08-04T02:06:03.558Z,1014.31
2022-08-04T02:07:08.595Z,1014.28
2022-08-04T02:08:01.020Z,1014.29
2022-08-04T02:09:01.027Z,1014.29
2022-08-04T02:10:00.742Z,1014.3
2022-08-04T02:11:00.400Z,1014.28
2022-08-04T02:12:16.125Z,1014.3
2022-08-04T02:13:01.180Z,1014.25
2022-08-04T02:14:01.004Z,1014.27
2022-08-04T02:15:00.689Z,1014.3
2022-08-04T02:16:00.342Z,1014.32
2022-08-04T02:17:13.498Z,1014.27
2022-08-04T02:18:01.256Z,1014.28
2022-08-04T02:19:00.907Z,1014.28
2022-08-04T02:20:00.552Z,1014.25
2022-08-04T02:21:00.214Z,1014.25
2022-08-04T02:22:00.020Z,1014.25
2022-08-04T02:22:59.733Z,1014.28
2022-08-04T02:24:01.433Z,1014.27
2022-08-04T02:25:01.146Z,1014.24
2022-08-04T02:26:00.930Z,1014.21
2022-08-04T02:27:00.641Z,1014.25
2022-08-04T02:28:01.056Z,1014.24
2022-08-04T02:29:00.960Z,1014.26
2022-08-04T02:30:00.640Z,1014.19
2022-08-04T02:31:00.293Z,1014.25
2022-08-04T02:31:59.954Z,1014.16
2022-08-04T02:32:59.640Z,1014.21
2022-08-04T02:34:01.306Z,1014.18
2022-08-04T02:35:01.037Z,1014.19
2022-08-04T02:36:02.399Z,1014.16
2022-08-04T02:37:01.015Z,1014.14
2022-08-04T02:38:01.753Z,1014.15
2022-08-04T02:39:00.801Z,1014.12
2022-08-04T02:40:00.750Z,1014.14
2022-08-04T02:41:00.658Z,1014.19
2022-08-04T02:42:00.317Z,1014.14
2022-08-04T02:43:00.036Z,1014.15
2022-08-04T02:43:59.727Z,1014.13
2022-08-04T02:45:01.528Z,1014.15
2022-08-04T02:46:01.931Z,1014.15
2022-08-04T02:47:01.082Z,1014.14
2022-08-04T02:48:28.996Z,1014.12
2022-08-04T02:49:00.734Z,1014.13
2022-08-04T02:50:00.401Z,1014.14
2022-08-04T02:51:00.068Z,1014.14
2022-08-04T02:51:59.829Z,1014.13
2022-08-04T02:53:02.382Z,1014.13
2022-08-04T02:54:00.840Z,1014.14
2022-08-04T02:55:00.684Z,1014.12
2022-08-04T02:56:00.341Z,1014.14
2022-08-04T02:57:00.140Z,1014.13
2022-08-04T02:57:59.778Z,1014.2
2022-08-04T02:59:01.463Z,1014.18
2022-08-04T03:00:01.181Z,1014.15
2022-08-04T03:01:00.956Z,1014.13
2022-08-04T03:02:00.756Z,1014.21
2022-08-04T03:03:00.975Z,1014.17
2022-08-04T03:04:00.685Z,1014.16
2022-08-04T03:05:00.341Z,1014.16
2022-08-04T03:06:01.643Z,1014.2
2022-08-04T03:07:01.315Z,1014.19
2022-08-04T03:08:00.761Z,1014.21
2022-08-04T03:09:00.467Z,1014.2
2022-08-04T03:10:00.185Z,1014.15
2022-08-04T03:10:59.862Z,1014.15
2022-08-04T03:11:59.539Z,1014.17
2022-08-04T03:13:01.445Z,1014.19
2022-08-04T03:14:01.157Z,1014.19
2022-08-04T03:15:01.127Z,1014.18
2022-08-04T03:16:00.809Z,1014.19
2022-08-04T03:17:00.463Z,1014.18
2022-08-04T03:18:00.439Z,1014.2
2022-08-04T03:19:00.178Z,1014.21
2022-08-04T03:20:00.648Z,1014.17
2022-08-04T03:21:00.287Z,1014.2
2022-08-04T03:21:59.980Z,1014.21
2022-08-04T03:23:12.985Z,1014.19
2022-08-04T03:24:00.684Z,1014.18
2022-08-04T03:25:00.431Z,1014.25
2022-08-04T03:26:00.126Z,1014.2
2022-08-04T03:26:59.824Z,1014.22
2022-08-04T03:28:02.968Z,1014.22
2022-08-04T03:29:01.566Z,1014.18
2022-08-04T03:30:01.032Z,1014.18
2022-08-04T03:31:01.032Z,1014.15
2022-08-04T03:32:00.508Z,1014.18
2022-08-04T03:33:00.144Z,1014.15
2022-08-04T03:33:59.930Z,1014.16
2022-08-04T03:34:59.690Z,1014.12
2022-08-04T03:36:01.412Z,1014.11
2022-08-04T03:37:01.056Z,1014.14
2022-08-04T03:38:00.713Z,1014.12
2022-08-04T03:39:00.382Z,1014.1
2022-08-04T03:40:00.223Z,1014.14
2022-08-04T03:40:59.850Z,1014.15
2022-08-04T03:42:04.094Z,1014.13
2022-08-04T03:43:00.525Z,1014.14
2022-08-04T03:44:00.288Z,1014.17
2022-08-04T03:44:59.938Z,1014.17
2022-08-04T03:46:00.366Z,1014.18
2022-08-04T03:47:00.054Z,1014.17
2022-08-04T03:47:59.743Z,1014.2
2022-08-04T03:49:01.494Z,1014.18
2022-08-04T03:50:00.697Z,1014.25
2022-08-04T03:51:00.345Z,1014.2
2022-08-04T03:52:00.172Z,1014.17
2022-08-04T03:52:59.895Z,1014.16
2022-08-04T03:53:59.548Z,1014.18
2022-08-04T03:55:01.235Z,1014.2
2022-08-04T03:56:01.028Z,1014.17
2022-08-04T03:57:00.679Z,1014.15
2022-08-04T03:58:01.059Z,1014.17
2022-08-04T03:59:00.743Z,1014.14
2022-08-04T04:00:00.419Z,1014.14
2022-08-04T04:01:00.172Z,1014.12
2022-08-04T04:02:02.224Z,1014.17
2022-08-04T04:03:05.245Z,1014.16
2022-08-04T04:04:00.913Z,1014.15
2022-08-04T04:05:00.968Z,1014.15
2022-08-04T04:06:02.323Z,1014.16
2022-08-04T04:07:00.688Z,1014.13
2022-08-04T04:08:07.473Z,1014.12
2022-08-04T04:09:01.256Z,1014.15
2022-08-04T04:10:05.999Z,1014.12
2022-08-04T04:11:00.975Z,1014.13
2022-08-04T04:12:00.673Z,1014.1
2022-08-04T04:13:08.956Z,1014.12
2022-08-04T04:14:00.672Z,1014.11
2022-08-04T04:15:00.358Z,1014.12
2022-08-04T04:16:00.025Z,1014.15
2022-08-04T04:16:59.688Z,1014.12
2022-08-04T04:18:10.428Z,1014.14
2022-08-04T04:19:02.531Z,1014.13
2022-08-04T04:20:01.096Z,1014.12
2022-08-04T04:21:00.776Z,1014.13
2022-08-04T04:22:00.488Z,1014.11
2022-08-04T04:23:15.051Z,1014.11
2022-08-04T04:24:01.204Z,1014.12
2022-08-04T04:25:00.817Z,1014.09
2022-08-04T04:26:00.597Z,1014.15
2022-08-04T04:27:00.249Z,1014.13
2022-08-04T04:28:45.835Z,1014.14
2022-08-04T04:29:03.425Z,1014.19
2022-08-04T04:30:00.572Z,1014.17
2022-08-04T04:31:00.351Z,1014.2
2022-08-04T04:32:00.035Z,1014.23
2022-08-04T04:32:59.744Z,1014.19
2022-08-04T04:34:01.480Z,1014.19
2022-08-04T04:35:01.130Z,1014.23
2022-08-04T04:36:00.804Z,1014.23
2022-08-04T04:37:00.566Z,1014.2
2022-08-04T04:38:00.314Z,1014.24
2022-08-04T04:39:00.059Z,1014.19
2022-08-04T04:40:00.086Z,1014.21
2022-08-04T04:41:01.051Z,1014.24
2022-08-04T04:42:00.687Z,1014.23
2022-08-04T04:43:00.428Z,1014.2
2022-08-04T04:44:00.137Z,1014.2
2022-08-04T04:44:59.828Z,1014.21
2022-08-04T04:46:01.577Z,1014.18
2022-08-04T04:47:00.764Z,1014.22
2022-08-04T04:48:07.988Z,1014.18
2022-08-04T04:49:01.439Z,1014.2
2022-08-04T04:50:00.790Z,1014.21
2022-08-04T04:51:00.581Z,1014.19
2022-08-04T04:52:00.294Z,1014.22
2022-08-04T04:52:59.976Z,1014.19
2022-08-04T04:54:00.118Z,1014.17
2022-08-04T04:55:00.409Z,1014.18
2022-08-04T04:56:00.100Z,1014.13
2022-08-04T04:57:00.172Z,1014.14
2022-08-04T04:57:59.821Z,1014.15
2022-08-04T04:59:02.710Z,1014.17
2022-08-04T05:00:01.689Z,1014.18
2022-08-04T05:01:01.572Z,1014.18
2022-08-04T05:02:01.251Z,1014.17
2022-08-04T05:03:03.933Z,1014.2
2022-08-04T05:04:01.101Z,1014.17
2022-08-04T05:05:00.912Z,1014.19
2022-08-04T05:06:00.695Z,1014.2
2022-08-04T05:07:00.377Z,1014.16
2022-08-04T05:08:00.089Z,1014.19
2022-08-04T05:09:01.119Z,1014.18
2022-08-04T05:10:00.662Z,1014.13
2022-08-04T05:11:00.433Z,1014.17
2022-08-04T05:12:00.098Z,1014.17
2022-08-04T05:14:34.683Z,1014.17
2022-08-04T05:14:37.359Z,1014.16
2022-08-04T05:15:02.513Z,1014.16
2022-08-04T05:16:01.438Z,1014.13
2022-08-04T05:17:01.074Z,1014.14
2022-08-04T05:18:00.730Z,1014.13
2022-08-04T05:19:00.456Z,1014.15
2022-08-04T05:20:00.169Z,1014.14
2022-08-04T05:21:00.768Z,1014.14
2022-08-04T05:22:00.469Z,1014.12
2022-08-04T05:23:00.163Z,1014.13
2022-08-04T05:23:59.865Z,1014.17
2022-08-04T05:24:59.589Z,1014.13
2022-08-04T05:26:01.345Z,1014.14
2022-08-04T05:27:01.342Z,1014.12
2022-08-04T05:28:00.992Z,1014.09
2022-08-04T05:29:00.732Z,1014.07
2022-08-04T05:30:00.828Z,1014.09
2022-08-04T05:31:00.644Z,1014.09
2022-08-04T05:32:00.342Z,1014.06
2022-08-04T05:33:00.252Z,1014.11
2022-08-04T05:33:59.984Z,1014.12
2022-08-04T05:34:59.749Z,1014.09
2022-08-04T05:36:19.138Z,1014.14
2022-08-04T05:37:01.458Z,1014.12
2022-08-04T05:38:01.935Z,1014.14
2022-08-04T05:39:01.286Z,1014.12
2022-08-04T05:40:00.703Z,1014.12
2022-08-04T05:41:00.500Z,1014.14
2022-08-04T05:42:04.364Z,1014.11
2022-08-04T05:43:01.169Z,1014.09
2022-08-04T05:44:00.588Z,1014.07
2022-08-04T05:45:00.270Z,1014.11
2022-08-04T05:45:59.920Z,1014.1
2022-08-04T05:46:59.626Z,1014.06
2022-08-04T05:48:01.289Z,1014.08
2022-08-04T05:49:01.145Z,1014.09
2022-08-04T05:50:02.093Z,1014.06
2022-08-04T05:51:01.353Z,1014.09
2022-08-04T05:52:01.493Z,1014.09
2022-08-04T05:53:01.471Z,1014.11
2022-08-04T05:54:01.293Z,1014.09
2022-08-04T05:55:01.780Z,1014.08
2022-08-04T05:56:00.994Z,1014.05
2022-08-04T05:57:00.730Z,1014.09
2022-08-04T05:58:00.411Z,1014.13
2022-08-04T05:59:00.197Z,1014.12
2022-08-04T06:00:00.300Z,1014.07
2022-08-04T06:01:00.156Z,1014.04
2022-08-04T06:02:00.259Z,1014.04
2022-08-04T06:02:59.941Z,1014.03
2022-08-04T06:03:59.840Z,1014.03
2022-08-04T06:05:02.763Z,1014.06
2022-08-04T06:06:00.767Z,1014
2022-08-04T06:07:00.464Z,1014.01
2022-08-04T06:08:11.826Z,1014.08
2022-08-04T06:09:02.106Z,1014.05
2022-08-04T06:10:01.452Z,1014.04
2022-08-04T06:11:00.786Z,1014.02
2022-08-04T06:12:03.881Z,1014.05
2022-08-04T06:13:02.573Z,1014.06
2022-08-04T06:14:04.369Z,1014.03
2022-08-04T06:15:01.248Z,1014.05
2022-08-04T06:16:01.425Z,1014.05
2022-08-04T06:17:01.160Z,1014.08
2022-08-04T06:18:33.752Z,1014.07
2022-08-04T06:20:02.033Z,1014.11
2022-08-04T06:20:17.911Z,1014.13
2022-08-04T06:21:01.188Z,1014.12
2022-08-04T06:22:02.339Z,1014.14
2022-08-04T06:23:01.604Z,1014.14
2022-08-04T06:24:10.135Z,1014.14
2022-08-04T06:25:01.320Z,1014.16
2022-08-04T06:26:00.593Z,1014.16
2022-08-04T06:27:00.239Z,1014.16
2022-08-04T06:27:59.875Z,1014.18
2022-08-04T06:29:10.187Z,1014.14
2022-08-04T06:30:01.346Z,1014.17
2022-08-04T06:31:01.043Z,1014.22
2022-08-04T06:32:28.588Z,1014.17
2022-08-04T06:33:03.925Z,1014.17
2022-08-04T06:34:14.753Z,1014.19
2022-08-04T06:35:01.141Z,1014.16
2022-08-04T06:36:00.872Z,1014.15
2022-08-04T06:37:00.580Z,1014.2
2022-08-04T06:38:01.131Z,1014.2
2022-08-04T06:39:01.363Z,1014.22
2022-08-04T06:40:01.124Z,1014.21
2022-08-04T06:41:00.898Z,1014.15
2022-08-04T06:42:17.372Z,1014.15
2022-08-04T06:43:00.627Z,1014.14
2022-08-04T06:44:00.429Z,1014.21
2022-08-04T06:45:00.120Z,1014.13
2022-08-04T06:45:59.827Z,1014.13
2022-08-04T06:47:01.495Z,1014.15
2022-08-04T06:48:01.480Z,1014.14
2022-08-04T06:49:01.255Z,1014.08
2022-08-04T06:51:25.334Z,1014.11
2022-08-04T06:51:30.428Z,1014.15
2022-08-04T06:52:00.654Z,1014.17
2022-08-04T06:53:00.366Z,1014.2
2022-08-04T06:54:00.007Z,1014.17
2022-08-04T06:54:59.762Z,1014.19
2022-08-04T06:56:01.504Z,1014.2
2022-08-04T06:57:01.350Z,1014.22
2022-08-04T06:58:03.400Z,1014.22
2022-08-04T06:59:01.038Z,1014.2
2022-08-04T07:00:00.823Z,1014.19
2022-08-04T07:01:00.752Z,1014.19
2022-08-04T07:02:00.605Z,1014.2
2022-08-04T07:03:00.327Z,1014.2
2022-08-04T07:03:59.986Z,1014.15
2022-08-04T07:05:03.333Z,1014.16
2022-08-04T07:06:06.356Z,1014.2
2022-08-04T07:07:01.602Z,1014.16
2022-08-04T07:08:00.704Z,1014.16
2022-08-04T07:09:00.412Z,1014.19
2022-08-04T07:10:00.182Z,1014.18
2022-08-04T07:10:59.863Z,1014.2
2022-08-04T07:12:02.575Z,1014.25
2022-08-04T07:13:02.435Z,1014.26
2022-08-04T07:14:00.857Z,1014.21
2022-08-04T07:15:00.615Z,1014.18
2022-08-04T07:16:00.339Z,1014.23
2022-08-04T07:17:00.007Z,1014.23
2022-08-04T07:17:59.712Z,1014.22
2022-08-04T07:19:10.398Z,1014.19
2022-08-04T07:20:02.490Z,1014.2
2022-08-04T07:21:01.779Z,1014.22
2022-08-04T07:22:18.109Z,1014.23
2022-08-04T07:23:01.482Z,1014.24
2022-08-04T07:24:01.735Z,1014.23
2022-08-04T07:25:01.312Z,1014.21
2022-08-04T07:26:12.953Z,1014.22
2022-08-04T07:27:00.997Z,1014.26
2022-08-04T07:28:02.114Z,1014.28
2022-08-04T07:29:00.662Z,1014.2
2022-08-04T07:30:00.315Z,1014.17
2022-08-04T07:31:00.309Z,1014.17
2022-08-04T07:31:59.967Z,1014.24
2022-08-04T07:32:59.709Z,1014.22
2022-08-04T07:34:17.372Z,1014.2
2022-08-04T07:35:02.396Z,1014.23
2022-08-04T07:36:05.744Z,1014.21
2022-08-04T07:37:01.167Z,1014.22
2022-08-04T07:38:01.371Z,1014.16
2022-08-04T07:39:00.936Z,1014.16
2022-08-04T07:40:00.780Z,1014.17
2022-08-04T07:41:00.743Z,1014.14
2022-08-04T07:42:02.181Z,1014.16
2022-08-04T07:43:03.333Z,1014.14
2022-08-04T07:44:01.110Z,1014.13
2022-08-04T07:45:00.821Z,1014.11
2022-08-04T07:46:00.512Z,1014.14
2022-08-04T07:47:00.262Z,1014.11
2022-08-04T07:48:04.921Z,1014.12
2022-08-04T07:49:01.042Z,1014.11
2022-08-04T07:50:00.748Z,1014.11
2022-08-04T07:51:01.284Z,1014.05
2022-08-04T07:52:00.960Z,1014.14
2022-08-04T07:53:52.926Z,1014.11
2022-08-04T07:54:01.175Z,1014.13
2022-08-04T07:55:00.893Z,1014.12
2022-08-04T07:56:00.568Z,1014.07
2022-08-04T07:57:00.169Z,1014.1
2022-08-04T07:57:59.862Z,1014.07
2022-08-04T07:59:01.639Z,1014.08
2022-08-04T08:00:02.226Z,1014.11
2022-08-04T08:01:01.506Z,1014.12
2022-08-04T08:02:00.874Z,1014.08
2022-08-04T08:03:00.751Z,1014.08
2022-08-04T08:04:00.699Z,1014.09
2022-08-04T08:05:00.551Z,1014.09
2022-08-04T08:06:30.448Z,1014.13
2022-08-04T08:07:01.055Z,1014.12
2022-08-04T08:08:00.749Z,1014.11
2022-08-04T08:09:00.386Z,1014.09
2022-08-04T08:10:00.680Z,1014.07
2022-08-04T08:11:00.376Z,1014.01
2022-08-04T08:12:35.248Z,1014.05
2022-08-04T08:13:01.089Z,1014.04
2022-08-04T08:14:00.884Z,1014.06
2022-08-04T08:15:00.654Z,1014.06
2022-08-04T08:16:00.404Z,1014.03
2022-08-04T08:17:00.185Z,1014.02
2022-08-04T08:18:00.856Z,1013.99
2022-08-04T08:19:00.753Z,1013.97
2022-08-04T08:20:00.878Z,1013.91
2022-08-04T08:21:00.647Z,1013.93
2022-08-04T08:22:01.393Z,1013.97
2022-08-04T08:23:01.369Z,1013.9
2022-08-04T08:24:00.673Z,1013.93
2022-08-04T08:25:00.819Z,1013.89
2022-08-04T08:26:00.462Z,1013.91
2022-08-04T08:27:00.544Z,1013.92
2022-08-04T08:28:00.502Z,1013.93
2022-08-04T08:29:00.939Z,1013.94
2022-08-04T08:30:01.523Z,1013.92
2022-08-04T08:31:00.807Z,1013.94
2022-08-04T08:32:07.446Z,1013.94
2022-08-04T08:33:00.720Z,1013.89
2022-08-04T08:34:00.425Z,1013.94
2022-08-04T08:35:04.068Z,1013.93
2022-08-04T08:36:01.040Z,1013.92
2022-08-04T08:37:00.697Z,1013.94
2022-08-04T08:38:00.353Z,1013.94
2022-08-04T08:39:01.413Z,1013.99
2022-08-04T08:40:06.256Z,1013.91
2022-08-04T08:41:01.275Z,1013.95
2022-08-04T08:42:00.978Z,1013.88
2022-08-04T08:43:59.997Z,1013.91
2022-08-04T08:44:05.571Z,1013.93
2022-08-04T08:45:10.693Z,1014.01
2022-08-04T08:46:00.951Z,1013.95
2022-08-04T08:47:00.834Z,1013.91
2022-08-04T08:48:06.193Z,1013.97
2022-08-04T08:49:02.464Z,1013.94
2022-08-04T08:50:13.794Z,1013.93
2022-08-04T08:51:01.107Z,1013.96
2022-08-04T08:52:00.894Z,1013.97
2022-08-04T08:53:02.635Z,1013.92
2022-08-04T08:54:00.818Z,1013.93
2022-08-04T08:55:00.565Z,1013.96
2022-08-04T08:56:00.209Z,1013.91
2022-08-04T08:56:59.844Z,1013.94
2022-08-04T08:58:01.623Z,1013.96
2022-08-04T08:59:01.452Z,1013.95
2022-08-04T09:00:01.213Z,1013.98
2022-08-04T09:01:01.250Z,1013.93
2022-08-04T09:02:00.751Z,1013.94
2022-08-04T09:03:04.087Z,1013.91
2022-08-04T09:04:02.543Z,1013.98
2022-08-04T09:05:00.638Z,1013.95
2022-08-04T09:06:00.299Z,1013.93
2022-08-04T09:07:00.095Z,1013.91
2022-08-04T09:07:59.821Z,1013.94
2022-08-04T09:09:01.530Z,1013.92
2022-08-04T09:10:00.872Z,1013.94
2022-08-04T09:11:00.598Z,1013.95
2022-08-04T09:12:00.304Z,1013.96
2022-08-04T09:13:00.035Z,1013.94
2022-08-04T09:13:59.695Z,1013.95
2022-08-04T09:15:01.534Z,1013.96
2022-08-04T09:16:02.163Z,1013.92
2022-08-04T09:17:01.228Z,1013.95
2022-08-04T09:18:00.909Z,1013.89
2022-08-04T09:19:00.520Z,1013.86
2022-08-04T09:20:00.250Z,1013.82
2022-08-04T09:21:00.008Z,1013.88
2022-08-04T09:22:00.134Z,1013.88
2022-08-04T09:23:00.150Z,1013.87
2022-08-04T09:24:00.150Z,1013.84
2022-08-04T09:25:00.232Z,1013.87
2022-08-04T09:25:59.943Z,1013.88
2022-08-04T09:26:59.800Z,1013.82
2022-08-04T09:28:05.770Z,1013.87
2022-08-04T09:29:01.089Z,1013.88
2022-08-04T09:30:00.917Z,1013.79
2022-08-04T09:31:00.950Z,1013.83
2022-08-04T09:32:06.706Z,1013.77
2022-08-04T09:33:01.318Z,1013.77
2022-08-04T09:34:01.019Z,1013.73
2022-08-04T09:35:02.042Z,1013.74
2022-08-04T09:36:00.725Z,1013.76
2022-08-04T09:37:01.057Z,1013.7
2022-08-04T09:38:00.741Z,1013.73
2022-08-04T09:39:00.470Z,1013.75
2022-08-04T09:40:00.248Z,1013.8
2022-08-04T09:41:01.267Z,1013.74
2022-08-04T09:42:01.106Z,1013.72
2022-08-04T09:43:00.942Z,1013.75
2022-08-04T09:44:49.425Z,1013.68
2022-08-04T09:45:05.770Z,1013.69
2022-08-04T09:46:00.894Z,1013.68
2022-08-04T09:47:00.551Z,1013.75
2022-08-04T09:48:00.216Z,1013.71
2022-08-04T09:48:59.889Z,1013.78
2022-08-04T09:50:00.916Z,1013.72
2022-08-04T09:51:00.755Z,1013.72
2022-08-04T09:52:00.450Z,1013.77
2022-08-04T09:53:01.551Z,1013.75
2022-08-04T09:54:01.552Z,1013.73
2022-08-04T09:55:01.239Z,1013.78
2022-08-04T09:56:03.278Z,1013.71
2022-08-04T09:57:01.000Z,1013.67
2022-08-04T09:58:01.011Z,1013.66
2022-08-04T09:59:00.773Z,1013.68
2022-08-04T10:00:01.841Z,1013.69
2022-08-04T10:01:01.563Z,1013.72
2022-08-04T10:02:01.332Z,1013.7
2022-08-04T10:03:01.412Z,1013.68
2022-08-04T10:04:01.036Z,1013.67
2022-08-04T10:05:00.824Z,1013.65
2022-08-04T10:06:01.145Z,1013.7
2022-08-04T10:07:00.862Z,1013.66
2022-08-04T10:08:15.458Z,1013.62
2022-08-04T10:09:00.532Z,1013.57
2022-08-04T10:10:00.257Z,1013.61
2022-08-04T10:10:59.917Z,1013.6
2022-08-04T10:11:59.599Z,1013.64
2022-08-04T10:13:01.589Z,1013.6
2022-08-04T10:14:00.780Z,1013.63
2022-08-04T10:15:00.503Z,1013.6
2022-08-04T10:16:00.286Z,1013.61
2022-08-04T10:16:59.965Z,1013.6
2022-08-04T10:17:59.686Z,1013.61
2022-08-04T10:19:08.158Z,1013.6
2022-08-04T10:20:01.647Z,1013.55
2022-08-04T10:21:07.838Z,1013.58
2022-08-04T10:22:28.850Z,1013.51
2022-08-04T10:23:11.093Z,1013.55
2022-08-04T10:24:01.567Z,1013.6
2022-08-04T10:25:00.971Z,1013.55
2022-08-04T10:26:05.413Z,1013.53
2022-08-04T10:27:00.675Z,1013.56
2022-08-04T10:28:00.329Z,1013.52
2022-08-04T10:28:59.984Z,1013.53
2022-08-04T10:29:59.782Z,1013.53
2022-08-04T10:31:02.543Z,1013.55
2022-08-04T10:32:01.080Z,1013.48
2022-08-04T10:33:00.808Z,1013.44
2022-08-04T10:34:00.526Z,1013.38
2022-08-04T10:35:00.216Z,1013.33
2022-08-04T10:36:00.112Z,1013.37
2022-08-04T10:37:00.673Z,1013.39
2022-08-04T10:38:02.097Z,1013.37
2022-08-04T10:39:02.047Z,1013.38
2022-08-04T10:40:01.182Z,1013.45
2022-08-04T10:41:03.353Z,1013.42
2022-08-04T10:42:00.856Z,1013.38
2022-08-04T10:43:00.518Z,1013.33
2022-08-04T10:44:00.205Z,1013.36
2022-08-04T10:45:01.237Z,1013.34
2022-08-04T10:46:06.892Z,1013.32
2022-08-04T10:47:00.766Z,1013.31
2022-08-04T10:48:01.538Z,1013.3
2022-08-04T10:49:01.404Z,1013.27
2022-08-04T10:50:00.771Z,1013.36
2022-08-04T10:51:10.260Z,1013.35
2022-08-04T10:52:01.131Z,1013.33
2022-08-04T10:53:00.820Z,1013.29
2022-08-04T10:54:00.499Z,1013.3
2022-08-04T10:55:00.236Z,1013.25
2022-08-04T10:56:13.152Z,1013.29
2022-08-04T10:57:00.795Z,1013.32
2022-08-04T10:58:00.863Z,1013.34
2022-08-04T10:59:00.579Z,1013.31
2022-08-04T11:00:03.579Z,1013.25
2022-08-04T11:02:02.011Z,1013.15
2022-08-04T11:02:03.792Z,1013.19
2022-08-04T11:03:01.161Z,1013.18
2022-08-04T11:04:01.940Z,1013.23
2022-08-04T11:05:00.868Z,1013.26
2022-08-04T11:06:00.607Z,1013.27
2022-08-04T11:07:00.427Z,1013.16
2022-08-04T11:08:00.112Z,1013.2
2022-08-04T11:09:01.050Z,1013.23
2022-08-04T11:10:00.738Z,1013.23
2022-08-04T11:11:00.425Z,1013.22
2022-08-04T11:12:01.354Z,1013.25
2022-08-04T11:13:02.016Z,1013.23
2022-08-04T11:14:01.326Z,1013.21
2022-08-04T11:15:00.685Z,1013.24
2022-08-04T11:16:00.362Z,1013.21
2022-08-04T11:17:00.042Z,1013.18
2022-08-04T11:17:59.763Z,1013.21
2022-08-04T11:19:01.531Z,1013.17
2022-08-04T11:20:31.814Z,1013.17
2022-08-04T11:21:01.321Z,1013.17
2022-08-04T11:22:01.157Z,1013.16
2022-08-04T11:23:01.058Z,1013.2
2022-08-04T11:24:01.640Z,1013.13
2022-08-04T11:25:01.162Z,1013.13
2022-08-04T11:26:00.840Z,1013.13
2022-08-04T11:27:00.509Z,1013.13
2022-08-04T11:28:01.080Z,1013.14
2022-08-04T11:29:03.898Z,1013.06
2022-08-04T11:30:01.049Z,1013.09
2022-08-04T11:31:01.178Z,1013.13
2022-08-04T11:32:00.881Z,1013.11
2022-08-04T11:33:00.852Z,1013.11
2022-08-04T11:34:00.519Z,1013.17
2022-08-04T11:35:00.342Z,1013.17
2022-08-04T11:36:00.103Z,1013.12
2022-08-04T11:37:00.415Z,1013.08
2022-08-04T11:38:00.127Z,1013.08
2022-08-04T11:38:59.863Z,1013.12
2022-08-04T11:39:59.513Z,1013.11
2022-08-04T11:41:02.533Z,1013.15
2022-08-04T11:42:01.043Z,1013.1
2022-08-04T11:43:00.601Z,1013.09
2022-08-04T11:44:03.993Z,1013.12
2022-08-04T11:45:01.500Z,1013.17
2022-08-04T11:46:01.176Z,1013.18
2022-08-04T11:47:00.981Z,1013.13
2022-08-04T11:48:00.700Z,1013.14
2022-08-04T11:49:00.488Z,1013.13
2022-08-04T11:50:00.181Z,1013.11
2022-08-04T11:50:59.892Z,1013.07
2022-08-04T11:52:00.590Z,1013.07
2022-08-04T11:53:00.295Z,1013.03
2022-08-04T11:54:00.010Z,1013.03
2022-08-04T11:54:59.715Z,1012.98
2022-08-04T11:56:07.780Z,1012.98
2022-08-04T11:57:01.145Z,1012.96
2022-08-04T11:58:01.068Z,1012.97
2022-08-04T11:59:01.801Z,1012.97
2022-08-04T12:00:04.063Z,1013.01
2022-08-04T12:01:02.741Z,1013.03
2022-08-04T12:02:01.610Z,1012.98
2022-08-04T12:03:00.771Z,1012.97
2022-08-04T12:04:03.638Z,1012.97
2022-08-04T12:05:00.712Z,1012.99
2022-08-04T12:06:00.512Z,1012.96
2022-08-04T12:07:21.730Z,1012.94
2022-08-04T12:08:01.196Z,1013.01
2022-08-04T12:09:00.860Z,1012.91